Inwood, Canada
Current Conditions -  °F | °C
As of 5:00 AM on Monday 20 Oct 2014 (Local Time) from CYWG Reporting Station
Overcast Overcast  
Wind Chill: 39°   Ceiling: 1200
Heat Index: 43°   Visibility: 15mi
Dew Point: 39°   Wind: 6mph
Humidity: 87%   Direction: 360°N
Pressure: 30.04"   Gusts: NA
Location:  50.5°N, 97.5°W
Report Text: CYWG 201000Z 36005KT 15SM OVC012 06/04 A3004 RMK ST8 SLP178
Loading
Personal Weather Stations






























Interactive Weather Map
Tropical Storm Tracking
New forecast layout! Learn more

10-Day Weather Forecast

Advertisements
Track Severe Weather on mobile